createdAt,value
2022-10-22T00:02:27.657Z,14.79
2022-10-22T00:04:54.583Z,14.77
2022-10-22T00:07:21.181Z,14.75
2022-10-22T00:09:47.819Z,14.74
2022-10-22T00:12:15.447Z,14.73
2022-10-22T00:14:42.575Z,14.71
2022-10-22T00:17:11.579Z,14.71
2022-10-22T00:19:38.897Z,14.72
2022-10-22T00:22:05.750Z,14.73
2022-10-22T00:24:33.849Z,14.73
2022-10-22T00:27:00.459Z,14.75
2022-10-22T00:29:26.819Z,14.75
2022-10-22T00:31:53.207Z,14.75
2022-10-22T00:34:21.346Z,14.77
2022-10-22T00:36:49.135Z,14.77
2022-10-22T00:39:17.454Z,14.80
2022-10-22T00:41:44.990Z,14.79
2022-10-22T00:44:48.964Z,14.83
2022-10-22T00:47:16.694Z,14.84
2022-10-22T00:49:44.225Z,14.83
2022-10-22T00:52:11.407Z,14.84
2022-10-22T00:54:38.674Z,14.85
2022-10-22T00:57:05.094Z,14.85
2022-10-22T00:59:31.765Z,14.85
2022-10-22T01:01:58.459Z,14.84
2022-10-22T01:04:24.925Z,14.84
2022-10-22T01:06:51.550Z,14.83
2022-10-22T01:09:42.483Z,14.82
2022-10-22T01:12:40.568Z,14.82
2022-10-22T01:15:23.078Z,14.80
2022-10-22T01:18:00.446Z,14.79
2022-10-22T01:20:51.193Z,14.79
2022-10-22T01:23:48.710Z,14.78
2022-10-22T01:26:36.253Z,14.77
2022-10-22T01:29:07.630Z,14.76
2022-10-22T01:31:39.611Z,14.75
2022-10-22T01:34:08.213Z,14.73
2022-10-22T01:36:37.341Z,14.73
2022-10-22T01:39:05.385Z,14.73
2022-10-22T01:41:31.908Z,14.74
2022-10-22T01:43:58.236Z,14.74
2022-10-22T01:46:26.857Z,14.75
2022-10-22T01:49:07.552Z,14.77
2022-10-22T01:52:11.560Z,14.77
2022-10-22T01:55:36.655Z,14.78
2022-10-22T01:58:14.951Z,14.77
2022-10-22T02:00:49.962Z,14.76
2022-10-22T02:03:26.669Z,14.75
2022-10-22T02:06:02.107Z,14.75
2022-10-22T02:08:32.230Z,14.72
2022-10-22T02:11:00.292Z,14.70
2022-10-22T02:13:32.031Z,14.68
2022-10-22T02:15:59.662Z,14.65
2022-10-22T02:18:30.229Z,14.64
2022-10-22T02:20:57.883Z,14.59
2022-10-22T02:23:24.516Z,14.57
2022-10-22T02:26:00.167Z,14.55
2022-10-22T02:28:37.548Z,14.54
2022-10-22T02:31:17.079Z,14.52
2022-10-22T02:33:48.038Z,14.51
2022-10-22T02:36:16.297Z,14.47
2022-10-22T02:38:43.250Z,14.46
2022-10-22T02:41:10.245Z,14.45
2022-10-22T02:43:44.858Z,14.44
2022-10-22T02:46:11.663Z,14.40
2022-10-22T02:48:38.219Z,14.38
2022-10-22T02:51:04.633Z,14.37
2022-10-22T02:53:31.142Z,14.35
2022-10-22T02:55:59.001Z,14.35
2022-10-22T02:58:25.348Z,14.34
2022-10-22T03:00:54.619Z,14.33
2022-10-22T03:03:21.550Z,14.32
2022-10-22T03:05:47.907Z,14.31
2022-10-22T03:08:14.259Z,14.31
2022-10-22T03:10:40.668Z,14.31
2022-10-22T03:13:07.039Z,14.30
2022-10-22T03:15:33.438Z,14.28
2022-10-22T03:17:59.801Z,14.27
2022-10-22T03:20:26.324Z,14.26
2022-10-22T03:22:52.821Z,14.24
2022-10-22T03:25:25.342Z,14.24
2022-10-22T03:27:54.268Z,14.22
2022-10-22T03:30:20.624Z,14.20
2022-10-22T03:32:46.972Z,14.23
2022-10-22T03:35:13.582Z,14.22
2022-10-22T03:37:40.771Z,14.23
2022-10-22T03:40:08.562Z,14.22
2022-10-22T03:42:35.323Z,14.22
2022-10-22T03:45:01.683Z,14.23
2022-10-22T03:47:28.073Z,14.23
2022-10-22T03:49:54.415Z,14.24
2022-10-22T03:52:20.746Z,14.24
2022-10-22T03:54:47.136Z,14.24
2022-10-22T03:57:13.620Z,14.24
2022-10-22T03:59:43.067Z,14.25
2022-10-22T04:02:10.807Z,14.22
2022-10-22T04:04:38.055Z,14.22
2022-10-22T04:07:06.562Z,14.23
2022-10-22T04:09:34.300Z,14.24
2022-10-22T04:12:03.723Z,14.24
2022-10-22T04:14:30.058Z,14.23
2022-10-22T04:16:56.385Z,14.23
2022-10-22T04:19:22.770Z,14.21
2022-10-22T04:21:49.317Z,14.21
2022-10-22T04:24:15.778Z,14.20
2022-10-22T04:26:42.347Z,14.20
2022-10-22T04:29:11.912Z,14.16
2022-10-22T04:31:41.520Z,14.14
2022-10-22T04:34:07.998Z,14.13
2022-10-22T04:36:34.514Z,14.09
2022-10-22T04:39:01.401Z,14.07
2022-10-22T04:41:30.887Z,14.04
2022-10-22T04:43:57.972Z,14.02
2022-10-22T04:46:26.177Z,13.99
2022-10-22T04:48:53.147Z,13.96
2022-10-22T04:51:21.809Z,13.94
2022-10-22T04:53:48.563Z,13.90
2022-10-22T04:56:26.847Z,13.89
2022-10-22T04:59:07.080Z,13.86
2022-10-22T05:01:40.021Z,13.82
2022-10-22T05:04:11.502Z,13.83
2022-10-22T05:06:38.339Z,13.78
2022-10-22T05:09:08.445Z,13.74
2022-10-22T05:11:37.843Z,13.70
2022-10-22T05:14:06.087Z,13.67
2022-10-22T05:16:34.086Z,13.63
2022-10-22T05:19:02.013Z,13.59
2022-10-22T05:21:28.897Z,13.58
2022-10-22T05:23:59.798Z,13.56
2022-10-22T05:26:28.099Z,13.55
2022-10-22T05:28:54.910Z,13.53
2022-10-22T05:31:21.326Z,13.52
2022-10-22T05:33:47.671Z,13.51
2022-10-22T05:36:17.684Z,13.52
2022-10-22T05:38:44.029Z,13.50
2022-10-22T05:41:16.237Z,13.50
2022-10-22T05:43:42.664Z,13.50
2022-10-22T05:46:11.938Z,13.52
2022-10-22T05:48:38.940Z,13.53
2022-10-22T05:51:10.659Z,13.54
2022-10-22T05:53:40.054Z,13.55
2022-10-22T05:56:09.229Z,13.56
2022-10-22T05:58:36.399Z,13.58
2022-10-22T06:01:15.225Z,13.60
2022-10-22T06:03:42.518Z,13.63
2022-10-22T06:06:20.543Z,13.65
2022-10-22T06:08:51.797Z,13.66
2022-10-22T06:11:20.162Z,13.68
2022-10-22T06:13:47.699Z,13.69
2022-10-22T06:16:14.606Z,13.71
2022-10-22T06:18:41.250Z,13.74
2022-10-22T06:21:10.856Z,13.78
2022-10-22T06:23:38.441Z,13.82
2022-10-22T06:26:05.619Z,13.87
2022-10-22T06:28:32.798Z,13.91
2022-10-22T06:31:00.946Z,13.96
2022-10-22T06:33:28.863Z,14.00
2022-10-22T06:35:55.491Z,14.05
2022-10-22T06:38:22.186Z,14.09
2022-10-22T06:40:48.545Z,14.14
2022-10-22T06:43:15.059Z,14.18
2022-10-22T06:45:41.514Z,14.22
2022-10-22T06:48:07.924Z,14.27
2022-10-22T06:50:35.019Z,14.31
2022-10-22T06:53:01.548Z,14.34
2022-10-22T06:55:28.120Z,14.39
2022-10-22T06:57:55.585Z,14.45
2022-10-22T07:00:22.377Z,14.50
2022-10-22T07:02:56.462Z,14.58
2022-10-22T07:05:25.467Z,14.62
2022-10-22T07:07:51.811Z,14.68
2022-10-22T07:10:18.338Z,14.77
2022-10-22T07:12:44.663Z,14.83
2022-10-22T07:15:11.483Z,14.88
2022-10-22T07:20:10.209Z,15.03
2022-10-22T07:22:36.596Z,15.09
2022-10-22T07:25:06.579Z,15.15
2022-10-22T07:27:33.898Z,15.22
2022-10-22T07:30:01.364Z,15.28
2022-10-22T07:32:28.047Z,15.34
2022-10-22T07:34:54.595Z,15.41
2022-10-22T07:37:22.081Z,15.48
2022-10-22T07:39:49.366Z,15.55
2022-10-22T07:42:16.166Z,15.63
2022-10-22T07:44:42.542Z,15.70
2022-10-22T07:47:08.910Z,15.79
2022-10-22T07:49:35.282Z,15.88
2022-10-22T07:52:01.776Z,15.96
2022-10-22T07:54:28.213Z,16.04
2022-10-22T07:56:54.614Z,16.13
2022-10-22T07:59:21.001Z,16.21
2022-10-22T08:01:47.442Z,16.30
2022-10-22T08:04:13.883Z,16.40
2022-10-22T08:06:42.528Z,16.50
2022-10-22T08:09:12.089Z,16.61
2022-10-22T08:11:39.046Z,16.71
2022-10-22T08:14:05.573Z,16.82
2022-10-22T08:16:32.058Z,16.89
2022-10-22T08:18:58.468Z,16.96
2022-10-22T08:21:25.022Z,17.00
2022-10-22T08:23:51.447Z,17.02
2022-10-22T08:26:18.192Z,17.06
2022-10-22T08:28:44.619Z,17.08
2022-10-22T08:31:11.534Z,17.10
2022-10-22T08:33:38.985Z,17.11
2022-10-22T08:36:05.691Z,17.15
2022-10-22T08:38:32.054Z,17.20
2022-10-22T08:41:18.159Z,17.25
2022-10-22T08:44:03.230Z,17.30
2022-10-22T08:47:11.271Z,17.36
2022-10-22T08:49:42.308Z,17.42
2022-10-22T08:52:14.451Z,17.44
2022-10-22T08:54:58.717Z,17.49
2022-10-22T08:57:58.251Z,17.53
2022-10-22T09:00:50.988Z,17.59
2022-10-22T09:03:36.613Z,17.67
2022-10-22T09:06:13.606Z,17.73
2022-10-22T09:08:42.531Z,17.77
2022-10-22T09:11:23.913Z,17.85
2022-10-22T09:13:51.698Z,17.90
2022-10-22T09:16:19.610Z,17.97
2022-10-22T09:18:59.564Z,18.03
2022-10-22T09:21:41.450Z,18.09
2022-10-22T09:24:10.765Z,18.12
2022-10-22T09:26:39.689Z,18.17
2022-10-22T09:29:07.028Z,18.20
2022-10-22T09:31:34.643Z,18.24
2022-10-22T09:34:06.019Z,18.29
2022-10-22T09:36:32.775Z,18.34
2022-10-22T09:38:59.664Z,18.42
2022-10-22T09:41:32.154Z,18.51
2022-10-22T09:43:59.222Z,18.60
2022-10-22T09:46:29.741Z,18.73
2022-10-22T09:49:10.474Z,18.86
2022-10-22T09:51:51.812Z,19.06
2022-10-22T09:54:19.913Z,19.17
2022-10-22T09:57:14.055Z,19.32
2022-10-22T09:59:43.087Z,19.41
2022-10-22T10:02:19.940Z,19.47
2022-10-22T10:04:56.202Z,19.56
2022-10-22T10:07:25.736Z,19.62
2022-10-22T10:09:54.095Z,19.68
2022-10-22T10:12:43.998Z,19.76
2022-10-22T10:15:20.483Z,19.81
2022-10-22T10:17:57.073Z,19.86
2022-10-22T10:20:35.428Z,19.89
2022-10-22T10:23:46.759Z,19.93
2022-10-22T10:26:20.127Z,19.96
2022-10-22T10:29:12.763Z,19.99
2022-10-22T10:31:52.990Z,20.01
2022-10-22T10:34:33.994Z,20.03
2022-10-22T10:37:19.161Z,20.02
2022-10-22T10:40:14.771Z,20.00
2022-10-22T10:42:51.527Z,20.00
2022-10-22T10:45:55.487Z,20.00
2022-10-22T10:49:03.476Z,20.01
2022-10-22T10:52:00.931Z,20.01
2022-10-22T10:55:08.820Z,20.00
2022-10-22T10:57:46.568Z,20.00
2022-10-22T11:00:20.037Z,20.00
2022-10-22T11:03:16.044Z,20.00
2022-10-22T11:05:58.261Z,20.00
2022-10-22T11:08:35.792Z,20.03
2022-10-22T11:11:23.878Z,20.05
2022-10-22T11:14:19.501Z,20.07
2022-10-22T11:17:13.968Z,20.10
2022-10-22T11:20:11.362Z,20.12
2022-10-22T11:23:18.081Z,20.15
2022-10-22T11:25:48.378Z,20.19
2022-10-22T11:28:30.547Z,20.23
2022-10-22T11:31:10.859Z,20.27
2022-10-22T11:33:50.684Z,20.31
2022-10-22T11:36:20.338Z,20.35
2022-10-22T11:38:46.797Z,20.38
2022-10-22T11:41:17.060Z,20.43
2022-10-22T11:44:09.531Z,20.48
2022-10-22T11:46:58.113Z,20.52
2022-10-22T11:49:42.591Z,20.55
2022-10-22T11:52:31.460Z,20.59
2022-10-22T11:55:02.307Z,20.62
2022-10-22T11:57:37.486Z,20.67
2022-10-22T12:00:31.349Z,20.70
2022-10-22T12:03:17.431Z,20.75
2022-10-22T12:05:45.539Z,20.76
2022-10-22T12:08:22.848Z,20.79
2022-10-22T12:10:57.336Z,20.80
2022-10-22T12:13:27.809Z,20.81
2022-10-22T12:15:58.426Z,20.80
2022-10-22T12:18:41.220Z,20.79
2022-10-22T12:21:13.708Z,20.78
2022-10-22T12:23:40.447Z,20.72
2022-10-22T12:26:21.846Z,20.70
2022-10-22T12:28:48.227Z,20.64
2022-10-22T12:31:18.085Z,20.59
2022-10-22T12:33:44.685Z,20.51
2022-10-22T12:36:18.041Z,20.47
2022-10-22T12:38:47.471Z,20.42
2022-10-22T12:41:14.124Z,20.39
2022-10-22T12:43:40.672Z,20.36
2022-10-22T12:46:15.082Z,20.37
2022-10-22T12:48:44.141Z,20.34
2022-10-22T12:51:17.927Z,20.34
2022-10-22T12:53:50.714Z,20.30
2022-10-22T12:56:29.965Z,20.25
2022-10-22T12:59:03.065Z,20.21
2022-10-22T13:01:35.962Z,20.15
2022-10-22T13:04:22.837Z,20.11
2022-10-22T13:06:52.479Z,20.06
2022-10-22T13:09:27.443Z,19.99
2022-10-22T13:12:04.576Z,19.92
2022-10-22T13:14:34.151Z,19.84
2022-10-22T13:17:11.617Z,19.79
2022-10-22T13:19:53.218Z,19.76
2022-10-22T13:22:30.970Z,19.77
2022-10-22T13:25:13.709Z,19.77
2022-10-22T13:27:45.043Z,19.80
2022-10-22T13:30:20.153Z,19.82
2022-10-22T13:32:51.896Z,19.85
2022-10-22T13:35:21.741Z,19.87
2022-10-22T13:37:48.058Z,19.89
2022-10-22T13:40:14.872Z,19.94
2022-10-22T13:42:41.532Z,19.97
2022-10-22T13:45:08.451Z,20.03
2022-10-22T13:47:34.838Z,20.11
2022-10-22T13:50:12.718Z,20.22
2022-10-22T13:52:43.240Z,20.30
2022-10-22T13:55:18.447Z,20.41
2022-10-22T13:57:45.626Z,20.46
2022-10-22T14:00:14.587Z,20.50
2022-10-22T14:02:42.167Z,20.53
2022-10-22T14:05:11.105Z,20.57
2022-10-22T14:07:38.853Z,20.58
2022-10-22T14:10:20.031Z,20.63
2022-10-22T14:12:52.311Z,20.63
2022-10-22T14:15:23.711Z,20.66
2022-10-22T14:17:56.151Z,20.68
2022-10-22T14:20:29.006Z,20.66
2022-10-22T14:23:11.709Z,20.64
2022-10-22T14:25:38.082Z,20.59
2022-10-22T14:28:04.587Z,20.53
2022-10-22T14:30:32.789Z,20.49
2022-10-22T14:32:59.331Z,20.44
2022-10-22T14:35:25.870Z,20.40
2022-10-22T14:37:52.286Z,20.37
2022-10-22T14:40:20.911Z,20.36
2022-10-22T14:42:48.964Z,20.34
2022-10-22T14:45:25.291Z,20.36
2022-10-22T14:47:54.773Z,20.34
2022-10-22T14:50:21.660Z,20.31
2022-10-22T14:52:48.537Z,20.30
2022-10-22T14:55:16.626Z,20.28
2022-10-22T14:57:43.706Z,20.24
2022-10-22T15:00:16.154Z,20.24
2022-10-22T15:02:43.090Z,20.19
2022-10-22T15:05:10.155Z,20.17
2022-10-22T15:07:37.100Z,20.15
2022-10-22T15:10:04.565Z,20.13
2022-10-22T15:12:30.927Z,20.12
2022-10-22T15:14:57.534Z,20.12
2022-10-22T15:17:24.084Z,20.11
2022-10-22T15:19:50.447Z,20.10
2022-10-22T15:22:17.315Z,20.10
2022-10-22T15:24:44.692Z,20.09
2022-10-22T15:27:15.045Z,20.09
2022-10-22T15:29:42.618Z,20.07
2022-10-22T15:32:12.676Z,20.04
2022-10-22T15:34:39.874Z,20.00
2022-10-22T15:37:09.013Z,19.96
2022-10-22T15:39:36.068Z,19.89
2022-10-22T15:42:02.450Z,19.84
2022-10-22T15:44:31.135Z,19.77
2022-10-22T15:46:58.326Z,19.70
2022-10-22T15:49:26.635Z,19.62
2022-10-22T15:51:53.514Z,19.57
2022-10-22T15:54:25.273Z,19.51
2022-10-22T15:56:51.887Z,19.44
2022-10-22T15:59:18.388Z,19.37
2022-10-22T16:01:44.859Z,19.30
2022-10-22T16:04:11.820Z,19.24
2022-10-22T16:06:43.387Z,19.18
2022-10-22T16:09:12.623Z,19.11
2022-10-22T16:11:40.184Z,19.04
2022-10-22T16:14:07.248Z,18.96
2022-10-22T16:16:36.465Z,18.89
2022-10-22T16:19:03.239Z,18.80
2022-10-22T16:21:29.690Z,18.73
2022-10-22T16:23:56.050Z,18.65
2022-10-22T16:26:22.453Z,18.59
2022-10-22T16:28:49.151Z,18.51
2022-10-22T16:31:17.916Z,18.46
2022-10-22T16:33:46.487Z,18.38
2022-10-22T16:36:17.993Z,18.32
2022-10-22T16:38:45.235Z,18.27
2022-10-22T16:41:14.333Z,18.21
2022-10-22T16:43:42.042Z,18.14
2022-10-22T16:46:09.138Z,18.08
2022-10-22T16:48:37.753Z,18.01
2022-10-22T16:51:08.866Z,17.97
2022-10-22T16:53:35.915Z,17.90
2022-10-22T16:56:02.754Z,17.85
2022-10-22T16:58:29.725Z,17.80
2022-10-22T17:00:56.078Z,17.77
2022-10-22T17:03:24.556Z,17.73
2022-10-22T17:05:53.857Z,17.69
2022-10-22T17:08:20.244Z,17.69
2022-10-22T17:10:46.816Z,17.67
2022-10-22T17:13:13.139Z,17.65
2022-10-22T17:15:40.383Z,17.65
2022-10-22T17:18:06.959Z,17.66
2022-10-22T17:20:33.358Z,17.65
2022-10-22T17:22:59.688Z,17.63
2022-10-22T17:25:36.998Z,17.62
2022-10-22T17:28:03.380Z,17.58
2022-10-22T17:30:30.310Z,17.52
2022-10-22T17:32:56.804Z,17.48
2022-10-22T17:35:23.198Z,17.42
2022-10-22T17:37:49.583Z,17.38
2022-10-22T17:40:16.175Z,17.31
2022-10-22T17:42:42.794Z,17.27
2022-10-22T17:45:09.538Z,17.20
2022-10-22T17:47:36.331Z,17.15
2022-10-22T17:50:02.675Z,17.07
2022-10-22T17:52:29.000Z,17.01
2022-10-22T17:54:55.450Z,16.96
2022-10-22T17:57:21.787Z,16.89
2022-10-22T17:59:48.178Z,16.84
2022-10-22T18:02:16.917Z,16.78
2022-10-22T18:04:43.706Z,16.71
2022-10-22T18:07:10.075Z,16.65
2022-10-22T18:09:36.546Z,16.59
2022-10-22T18:12:03.011Z,16.54
2022-10-22T18:14:29.595Z,16.50
2022-10-22T18:16:55.978Z,16.44
2022-10-22T18:19:24.389Z,16.39
2022-10-22T18:21:50.808Z,16.34
2022-10-22T18:24:18.005Z,16.28
2022-10-22T18:26:44.397Z,16.22
2022-10-22T18:29:15.591Z,16.18
2022-10-22T18:31:41.959Z,16.12
2022-10-22T18:34:08.390Z,16.07
2022-10-22T18:36:34.748Z,16.01
2022-10-22T18:39:02.154Z,15.97
2022-10-22T18:41:29.926Z,15.91
2022-10-22T18:44:01.599Z,15.87
2022-10-22T18:46:29.666Z,15.83
2022-10-22T18:48:57.361Z,15.79
2022-10-22T18:51:30.768Z,15.76
2022-10-22T18:54:06.028Z,15.70
2022-10-22T18:56:43.821Z,15.65
2022-10-22T18:59:18.659Z,15.62
2022-10-22T19:01:45.000Z,15.58
2022-10-22T19:04:13.423Z,15.55
2022-10-22T19:06:44.330Z,15.50
2022-10-22T19:09:13.500Z,15.48
2022-10-22T19:11:39.990Z,15.46
2022-10-22T19:14:06.550Z,15.41
2022-10-22T19:16:34.688Z,15.37
2022-10-22T19:19:03.602Z,15.35
2022-10-22T19:21:30.264Z,15.32
2022-10-22T19:23:57.774Z,15.31
2022-10-22T19:26:26.418Z,15.28
2022-10-22T19:28:54.254Z,15.25
2022-10-22T19:31:23.146Z,15.22
2022-10-22T19:33:51.127Z,15.19
2022-10-22T19:36:19.272Z,15.14
2022-10-22T19:38:48.905Z,15.10
2022-10-22T19:41:20.002Z,15.06
2022-10-22T19:43:49.337Z,15.03
2022-10-22T19:46:15.992Z,14.98
2022-10-22T19:48:42.449Z,14.94
2022-10-22T19:51:14.383Z,14.90
2022-10-22T19:53:41.083Z,14.87
2022-10-22T19:56:09.732Z,14.85
2022-10-22T19:58:37.213Z,14.82
2022-10-22T20:01:11.787Z,14.80
2022-10-22T20:03:39.184Z,14.78
2022-10-22T20:06:07.925Z,14.75
2022-10-22T20:08:37.800Z,14.69
2022-10-22T20:11:07.062Z,14.67
2022-10-22T20:13:35.049Z,14.62
2022-10-22T20:16:01.531Z,14.58
2022-10-22T20:18:27.951Z,14.56
2022-10-22T20:20:54.319Z,14.52
2022-10-22T20:23:20.848Z,14.49
2022-10-22T20:25:47.874Z,14.47
2022-10-22T20:28:15.495Z,14.44
2022-10-22T20:30:45.644Z,14.42
2022-10-22T20:33:12.792Z,14.39
2022-10-22T20:35:39.716Z,14.37
2022-10-22T20:38:08.047Z,14.35
2022-10-22T20:40:34.703Z,14.34
2022-10-22T20:43:01.755Z,14.32
2022-10-22T20:45:28.942Z,14.30
2022-10-22T20:48:02.789Z,14.29
2022-10-22T20:50:32.096Z,14.28
2022-10-22T20:52:59.500Z,14.27
2022-10-22T20:55:26.856Z,14.26
2022-10-22T20:57:53.606Z,14.24
2022-10-22T21:00:20.028Z,14.21
2022-10-22T21:02:46.663Z,14.21
2022-10-22T21:05:13.069Z,14.20
2022-10-22T21:07:39.692Z,14.20
2022-10-22T21:10:06.705Z,14.20
2022-10-22T21:12:33.212Z,14.20
2022-10-22T21:14:59.544Z,14.20
2022-10-22T21:17:25.974Z,14.20
2022-10-22T21:19:52.332Z,14.20
2022-10-22T21:22:18.659Z,14.22
2022-10-22T21:24:45.006Z,14.22
2022-10-22T21:27:11.487Z,14.22
2022-10-22T21:29:37.850Z,14.22
2022-10-22T21:32:04.264Z,14.22
2022-10-22T21:34:34.237Z,14.23
2022-10-22T21:37:02.998Z,14.22
2022-10-22T21:39:30.361Z,14.22
2022-10-22T21:41:56.831Z,14.23
2022-10-22T21:44:23.171Z,14.21
2022-10-22T21:46:49.509Z,14.21
2022-10-22T21:49:15.898Z,14.21
2022-10-22T21:51:42.827Z,14.19
2022-10-22T21:54:09.160Z,14.18
2022-10-22T21:56:36.534Z,14.16
2022-10-22T21:59:04.517Z,14.17
2022-10-22T22:01:30.918Z,14.14
2022-10-22T22:03:57.969Z,14.14
2022-10-22T22:06:29.504Z,14.14
2022-10-22T22:08:57.531Z,14.14
2022-10-22T22:11:25.995Z,14.15
2022-10-22T22:13:57.540Z,14.17
2022-10-22T22:16:29.738Z,14.21
2022-10-22T22:19:06.526Z,14.23
2022-10-22T22:21:35.162Z,14.26
2022-10-22T22:24:01.853Z,14.29
2022-10-22T22:26:30.032Z,14.32
2022-10-22T22:28:58.448Z,14.36
2022-10-22T22:31:27.667Z,14.40
2022-10-22T22:34:00.171Z,14.43
2022-10-22T22:36:26.499Z,14.44
2022-10-22T22:38:56.877Z,14.46
2022-10-22T22:41:23.601Z,14.46
2022-10-22T22:43:50.007Z,14.49
2022-10-22T22:46:16.395Z,14.52
2022-10-22T22:48:42.815Z,14.55
2022-10-22T22:51:10.134Z,14.58
2022-10-22T22:53:36.490Z,14.59
2022-10-22T22:56:07.197Z,14.63
2022-10-22T22:58:34.769Z,14.65
2022-10-22T23:01:21.897Z,14.68
2022-10-22T23:03:53.904Z,14.70
2022-10-22T23:06:20.336Z,14.70
2022-10-22T23:08:50.114Z,14.71
2022-10-22T23:11:16.717Z,14.70
2022-10-22T23:13:43.900Z,14.71
2022-10-22T23:16:15.841Z,14.72
2022-10-22T23:18:43.072Z,14.71
2022-10-22T23:21:13.568Z,14.74
2022-10-22T23:23:43.677Z,14.73
2022-10-22T23:26:12.213Z,14.70
2022-10-22T23:28:38.836Z,14.70
2022-10-22T23:31:06.563Z,14.68
2022-10-22T23:33:33.226Z,14.67
2022-10-22T23:36:02.530Z,14.68
2022-10-22T23:38:28.878Z,14.66
2022-10-22T23:40:56.901Z,14.66
2022-10-22T23:43:27.366Z,14.67
2022-10-22T23:45:54.814Z,14.64
2022-10-22T23:48:22.165Z,14.66
2022-10-22T23:50:49.094Z,14.65
2022-10-22T23:53:15.653Z,14.67
2022-10-22T23:55:43.380Z,14.65
2022-10-22T23:58:10.787Z,14.67
